Latest Weather Observations for Kingfish B

IDV60801

Issued at 5:35 am EST Saturday 26 July 2014 (issued every 30 minutes, with the page automatically refreshed every 10 minutes)

About weather observations | Map of weather stations | Latest weather observations for VIC | Other Formats
Station Details ID: 400139 Name: KINGFISH B (PLATFORM) Lat: -38.60 Lon: 148.19 Height: 31.4 m
Data from the previous 72 hours. | See also: Recent months for locations in Victoria
Date/Time
EST
Temp
°C
App
Temp
°C
Dew
Point
Rel
Hum
%
Delta-T
°C
Wind Press
QNH
hPa
Press
MSL
hPa
Rain
since 9 am
mm
Dir
 
Spd
km/h
Gust
km/h
Spd
kts
Gust
kts
26/04:20am 14.6 13.3 9.8 73 2.5 NW 7 9 4 5 1019.9 - -
26/04:10am 14.4 13.0 9.5 72 2.5 WNW 7 11 4 6 1019.8 - -
26/04:00am 14.4 12.6 9.4 72 2.6 WNW 9 13 5 7 1019.7 - -
26/03:50am 14.5 13.1 9.4 71 2.6 WNW 7 9 4 5 1019.6 - -
26/03:40am 14.6 13.1 9.2 70 2.8 WNW 7 11 4 6 1019.6 - -
26/03:30am 14.4 12.0 8.7 68 2.9 WNW 11 15 6 8 1019.6 - -
26/03:20am 14.3 12.4 8.9 70 2.7 NW 9 13 5 7 1019.6 - -
26/03:10am 14.1 12.2 9.1 72 2.5 WNW 9 11 5 6 1019.6 - -
26/03:00am 14.2 12.4 9.6 74 2.4 WNW 9 11 5 6 1019.5 - -
26/02:50am 14.3 12.6 9.7 74 2.4 WNW 9 13 5 7 1019.5 - -
26/02:40am 14.2 11.6 9.5 73 2.4 WNW 13 15 7 8 1019.6 - -
26/02:30am 14.3 11.8 9.6 73 2.4 NW 13 15 7 8 1019.5 - -
26/02:20am 14.4 12.3 9.7 73 2.4 NW 11 15 6 8 1019.5 - -
26/02:10am 14.3 12.4 9.1 71 2.7 NW 9 13 5 7 1019.5 - -
26/02:00am 14.2 11.5 9.1 71 2.6 WNW 13 15 7 8 1019.6 - -
26/01:50am 14.3 12.0 9.1 71 2.7 WNW 11 15 6 8 1019.6 - -
26/01:40am 14.3 11.9 8.5 68 2.9 NW 11 13 6 7 1019.6 - -
26/01:30am 14.6 13.0 8.9 68 2.9 WNW 7 11 4 6 1019.6 - -
26/01:20am 14.5 12.9 8.6 67 3.0 W 7 7 4 4 1019.5 - -
26/01:10am 14.4 12.4 8.6 68 2.9 W 9 11 5 6 1019.5 - -
26/01:00am 14.4 12.5 9.0 70 2.7 W 9 11 5 6 1019.4 - -
26/12:50am 14.4 12.5 9.2 71 2.7 WNW 9 13 5 7 1019.4 - -
26/12:40am 14.5 12.7 9.4 71 2.6 WNW 9 17 5 9 1019.5 - -
26/12:30am 14.5 13.0 9.3 71 2.7 WNW 7 11 4 6 1019.6 - -
26/12:10am 14.4 12.2 9.3 71 2.6 NW 11 15 6 8 1019.6 - -
26/12:00am 14.4 12.2 9.4 72 2.6 NW 11 15 6 8 1019.6 - -
 
Date/Time
EST
Temp
°C
App
Temp
°C
Dew
Point
Rel
Hum
%
Delta-T
°C
Wind Press
QNH
hPa
Press
MSL
hPa
Rain
since 9 am
mm
Dir
 
Spd
km/h
Gust
km/h
Spd
kts
Gust
kts
25/11:50pm 14.4 11.8 9.5 72 2.5 NNW 13 17 7 9 1019.5 - -
25/11:40pm 14.5 11.9 9.4 71 2.6 NNW 13 13 7 7 1019.5 - -
25/11:30pm 14.6 12.8 9.5 71 2.6 NNW 9 13 5 7 1019.5 - -
25/11:20pm 14.5 13.0 9.0 69 2.8 NNW 7 9 4 5 1019.6 - -
25/11:10pm 14.3 12.4 9.1 71 2.7 NNW 9 13 5 7 1019.6 - -
25/11:00pm 14.5 12.3 9.4 71 2.6 NNW 11 13 6 7 1019.6 - -
25/10:50pm 14.4 11.8 9.4 72 2.6 NW 13 17 7 9 1019.7 - -
25/10:40pm 14.6 12.1 9.8 73 2.5 NW 13 15 7 8 1019.7 - -
25/10:30pm 14.7 13.5 9.6 71 2.6 NW 6 9 3 5 1019.8 - -
25/10:20pm 14.6 13.1 9.3 70 2.7 NW 7 13 4 7 1019.7 - -
25/10:10pm 14.9 12.7 9.4 69 2.8 NW 11 13 6 7 1019.7 - -
25/10:00pm 15.8 14.0 9.5 66 3.3 NW 9 13 5 7 1019.8 - -
25/09:50pm 15.0 12.0 9.2 68 3.0 WNW 15 20 8 11 1019.9 - -
25/09:40pm 15.1 11.2 9.3 68 3.0 WNW 20 26 11 14 1019.9 - -
25/09:30pm 15.0 9.8 8.9 67 3.1 WNW 26 32 14 17 1019.7 - -
25/09:20pm 15.1 10.8 9.5 69 2.9 WNW 22 30 12 16 1019.7 - -
25/09:00pm 15.3 11.5 8.9 65 3.3 WNW 19 20 10 11 1019.5 - -
25/08:50pm 15.3 11.4 8.8 65 3.3 NW 19 22 10 12 1019.4 - -
25/08:40pm 15.4 11.3 8.5 63 3.5 NW 20 22 11 12 1019.4 - -
25/08:30pm 15.5 10.9 8.2 62 3.7 NW 22 26 12 14 1019.3 - -
25/08:20pm 15.5 10.9 8.2 62 3.7 WNW 22 26 12 14 1019.3 - -
25/08:10pm 15.5 10.6 8.3 62 3.6 WNW 24 28 13 15 1019.3 - -
25/08:00pm 15.6 10.6 8.2 61 3.7 WNW 24 28 13 15 1019.3 - -
25/07:50pm 15.7 10.3 7.9 59 3.9 WNW 26 30 14 16 1019.1 - -
25/07:40pm 15.8 10.0 8.0 60 3.9 WNW 28 32 15 17 1019.0 - -
25/07:30pm 15.6 9.8 8.1 61 3.8 WNW 28 32 15 17 1019.0 - -
25/07:20pm 15.6 10.3 8.4 62 3.6 WNW 26 30 14 16 1019.0 - -
25/07:10pm 15.6 10.7 8.6 63 3.6 WNW 24 28 13 15 1018.8 - -
25/07:00pm 15.6 11.1 8.4 62 3.6 WNW 22 28 12 15 1018.7 - -
25/06:50pm 15.5 10.2 8.5 63 3.6 WNW 26 30 14 16 1018.6 - -
25/06:40pm 15.3 11.0 9.4 68 3.0 NW 22 28 12 15 1018.5 - -
25/06:30pm 15.3 11.0 9.2 67 3.1 NW 22 26 12 14 1018.4 - -
25/06:20pm 15.3 11.3 8.9 65 3.3 NW 20 22 11 12 1018.4 - -
25/06:10pm 15.3 11.5 9.0 66 3.2 NW 19 20 10 11 1018.3 - -
25/06:00pm 15.2 12.2 9.2 67 3.1 NW 15 19 8 10 1018.2 - -
25/05:50pm 15.1 12.2 9.5 69 2.9 NNW 15 19 8 10 1018.0 - -
25/05:40pm 14.8 12.7 9.7 71 2.6 NW 11 15 6 8 1017.9 - -
25/05:30pm 15.0 13.0 10.3 73 2.5 NNW 11 15 6 8 1017.8 - -
25/05:20pm 15.0 12.3 10.2 73 2.5 N 15 17 8 9 1017.9 - -
25/05:10pm 14.9 12.8 9.9 72 2.6 NNW 11 15 6 8 1017.8 - -
25/05:00pm 14.8 12.3 9.8 72 2.6 NNW 13 17 7 9 1017.7 - -
25/04:50pm 15.1 13.5 10.1 72 2.6 N 9 17 5 9 1017.5 - -
25/04:40pm 15.0 13.9 9.9 71 2.7 NW 6 9 3 5 1017.4 - -
25/04:20pm 15.0 13.9 10.1 72 2.6 NW 6 7 3 4 1017.3 - -
25/04:10pm 15.1 13.9 10.2 72 2.6 NW 7 9 4 5 1017.3 - -
25/04:00pm 14.9 13.2 9.9 72 2.6 NW 9 11 5 6 1017.2 - -
25/03:50pm 14.9 12.9 10.0 72 2.6 NW 11 13 6 7 1017.2 - -
25/03:30pm 15.1 13.8 10.1 72 2.6 NW 7 9 4 5 1017.0 - -
25/03:20pm 15.2 13.9 10.1 71 2.7 NW 7 9 4 5 1017.0 - -
25/03:10pm 15.3 14.0 10.1 71 2.7 NW 7 9 4 5 1016.9 - -
25/03:00pm 15.5 14.5 10.2 70 2.8 NNW 6 7 3 4 1016.8 - -
25/02:50pm 16.0 14.8 10.3 69 3.0 NNW 7 7 4 4 1016.8 - -
25/02:40pm 16.0 15.0 10.3 69 3.0 NW 6 7 3 4 1016.7 - -
25/02:30pm 15.7 14.7 10.2 70 2.9 WNW 6 6 3 3 1016.6 - -
25/02:00pm 16.0 15.3 10.2 68 3.1 WNW 4 9 2 5 1016.6 - -
25/01:50pm 15.5 14.2 9.9 69 2.9 WNW 7 11 4 6 1016.6 - -
25/01:40pm 15.4 12.9 9.6 68 3.0 WNW 13 17 7 9 1016.6 - -
25/01:30pm 15.5 13.3 9.5 67 3.1 WNW 11 13 6 7 1016.5 - -
25/01:20pm 15.7 13.9 9.6 67 3.2 WNW 9 11 5 6 1016.4 - -
25/01:10pm 15.8 14.4 9.7 67 3.2 WNW 7 9 4 5 1016.4 - -
25/01:00pm 15.7 13.8 9.2 65 3.4 WNW 9 15 5 8 1016.4 - -
25/12:50pm 15.7 12.6 9.0 64 3.4 WNW 15 17 8 9 1016.4 - -
25/12:40pm 15.8 13.0 8.6 62 3.7 WNW 13 17 7 9 1016.4 - -
25/12:30pm 16.0 12.4 8.3 60 3.9 WNW 17 19 9 10 1016.5 - -
25/12:20pm 15.9 11.7 8.2 60 3.9 WNW 20 24 11 13 1016.5 - -
25/12:10pm 15.7 11.2 8.7 63 3.6 WNW 22 26 12 14 1016.5 - -
25/12:00pm 15.6 10.9 9.3 66 3.3 WNW 24 28 13 15 1016.6 - -
25/11:50am 15.7 11.4 9.5 66 3.2 WNW 22 26 12 14 1016.6 - -
25/11:40am 15.5 11.2 9.4 67 3.2 WNW 22 26 12 14 1016.7 - -
25/11:30am 15.3 11.6 9.5 68 3.0 WNW 19 24 10 13 1016.8 - -
25/11:20am 15.4 11.5 9.6 68 3.0 WNW 20 24 11 13 1017.0 - -
25/11:10am 15.5 11.2 9.5 67 3.1 NW 22 28 12 15 1017.0 - -
25/11:00am 15.6 11.8 9.7 68 3.1 NW 20 26 11 14 1017.2 - -
25/10:50am 15.9 12.4 10.2 69 3.0 NW 19 24 10 13 1017.3 - -
25/10:40am 15.6 12.4 9.9 69 3.0 WNW 17 20 9 11 1017.5 - -
25/10:30am 15.6 12.7 9.6 67 3.1 WNW 15 19 8 10 1017.5 - -
25/10:20am 15.5 11.8 9.5 67 3.1 NW 19 24 10 13 1017.4 - -
25/10:10am 15.3 11.4 9.6 69 3.0 NW 20 26 11 14 1017.4 - -
25/10:00am 15.5 11.3 9.9 69 2.9 NW 22 28 12 15 1017.4 - -
25/09:50am 15.4 10.8 9.5 68 3.1 NW 24 30 13 16 1017.4 - -
25/09:30am 15.6 11.0 9.6 67 3.1 NW 24 28 13 15 1017.2 - -
25/09:20am 15.8 11.6 9.7 67 3.2 NW 22 28 12 15 1017.3 - -
25/09:10am 15.8 12.0 9.9 68 3.1 NW 20 26 11 14 1017.3 - -
25/09:00am 16.0 12.2 9.9 67 3.2 NW 20 26 11 14 1017.2 - -
25/08:50am 16.0 11.8 9.8 66 3.2 NNW 22 26 12 14 1017.1 - -
25/08:40am 15.8 10.8 9.7 67 3.2 NNW 26 30 14 16 1016.9 - -
25/08:30am 15.7 10.4 9.8 68 3.1 N 28 33 15 18 1016.7 - -
25/08:20am 15.7 9.6 9.7 67 3.1 N 32 35 17 19 1016.5 - -
25/08:10am 15.7 9.5 9.4 66 3.3 N 32 35 17 19 1016.5 - -
25/08:00am 15.9 10.5 9.4 65 3.4 N 28 33 15 18 1016.5 - -
25/07:50am 16.0 10.5 9.3 64 3.5 N 28 35 15 19 1016.5 - -
25/07:40am 15.9 10.5 9.4 65 3.4 NNW 28 32 15 17 1016.5 - -
25/07:30am 15.6 11.0 9.7 68 3.1 NNW 24 32 13 17 1016.4 - -
25/07:20am 15.5 11.4 10.1 70 2.8 N 22 28 12 15 1016.3 - -
25/07:10am 15.4 11.7 10.3 71 2.7 NNW 20 26 11 14 1016.2 - -
25/07:00am 15.3 11.6 10.3 72 2.6 NNW 20 26 11 14 1016.1 - -
25/06:50am 15.0 11.3 10.1 72 2.6 N 20 26 11 14 1016.0 - -
25/06:40am 14.9 10.8 10.1 73 2.5 - 22 26 12 14 1015.8 - -
25/06:30am 14.8 10.3 10.0 73 2.5 - 24 28 13 15 1015.7 - -
25/06:20am 14.8 10.3 10.1 73 2.5 - 24 30 13 16 1015.7 - -
25/06:10am 14.9 10.8 10.1 73 2.5 N 22 28 12 15 1015.7 - -
25/06:00am 14.9 10.4 10.0 72 2.6 N 24 28 13 15 1015.6 - -
25/05:50am 14.8 10.2 9.7 71 2.6 N 24 28 13 15 1015.5 - -
25/05:40am 15.1 10.2 10.0 71 2.7 N 26 30 14 16 1015.5 - -
25/05:30am 14.6 9.6 9.6 72 2.6 N 26 30 14 16 1015.4 - -
25/05:10am 14.7 10.5 9.6 71 2.6 N 22 26 12 14 1015.1 - -
25/05:00am 14.7 10.0 9.4 70 2.7 N 24 28 13 15 1015.1 - -
25/04:50am 14.8 9.8 9.5 70 2.7 N 26 28 14 15 1015.1 - -
25/04:40am 14.9 9.9 9.6 70 2.7 N 26 30 14 16 1015.0 - -
25/04:30am 14.9 10.6 9.5 70 2.8 N 22 28 12 15 1015.0 - -
25/04:20am 14.9 10.2 9.4 69 2.8 N 24 28 13 15 1014.9 - -
25/04:10am 14.9 10.2 9.4 69 2.8 N 24 32 13 17 1015.0 - -
25/04:00am 15.0 9.9 9.2 68 3.0 N 26 30 14 16 1014.9 - -
25/03:50am 15.0 11.1 9.5 69 2.8 NNE 20 28 11 15 1014.9 - -
25/03:40am 15.1 11.5 9.8 70 2.8 NNE 19 22 10 12 1015.0 - -
25/03:30am 15.2 12.1 10.2 72 2.6 NNE 17 20 9 11 1015.1 - -
25/03:20am 15.2 11.8 10.4 73 2.5 NNE 19 22 10 12 1015.2 - -
25/03:10am 15.2 10.8 10.5 73 2.5 NNE 24 28 13 15 1015.2 - -
25/03:00am 15.2 11.2 10.5 73 2.5 NNE 22 26 12 14 1015.1 - -
25/02:50am 15.3 11.7 10.7 74 2.4 NNE 20 22 11 12 1015.1 - -
25/02:40am 15.3 11.7 10.7 74 2.4 NNE 20 26 11 14 1015.3 - -
25/02:30am 15.3 11.0 10.8 74 2.4 NNE 24 28 13 15 1015.3 - -
25/02:20am 15.3 11.0 10.8 74 2.4 NNE 24 26 13 14 1015.1 - -
25/02:10am 15.4 11.1 10.9 74 2.4 NNE 24 28 13 15 1015.1 - -
25/02:00am 15.4 11.1 10.9 74 2.4 NNE 24 28 13 15 1015.3 - -
25/01:50am 15.4 10.7 10.7 73 2.5 NNE 26 28 14 15 1015.4 - -
25/01:40am 15.5 11.2 10.8 73 2.5 NNE 24 28 13 15 1015.6 - -
25/01:30am 15.6 11.3 10.8 73 2.6 NNE 24 28 13 15 1015.5 - -
25/01:20am 15.6 11.3 10.6 72 2.6 NNE 24 28 13 15 1015.5 - -
25/01:00am 15.6 10.4 10.2 70 2.8 NNE 28 30 15 16 1015.4 - -
25/12:50am 15.6 10.4 10.1 70 2.9 NE 28 32 15 17 1015.3 - -
25/12:40am 15.6 10.7 9.8 68 3.0 NE 26 28 14 15 1015.3 - -
25/12:30am 15.6 10.7 9.9 69 3.0 NE 26 28 14 15 1015.3 - -
25/12:20am 15.5 11.0 9.9 69 2.9 NE 24 26 13 14 1015.2 - -
25/12:10am 15.6 11.1 10.1 70 2.9 NE 24 28 13 15 1015.2 - -
25/12:00am 15.6 11.1 10.0 69 2.9 NNE 24 28 13 15 1015.3 - -
 
Date/Time
EST
Temp
°C
App
Temp
°C
Dew
Point
Rel
Hum
%
Delta-T
°C
Wind Press
QNH
hPa
Press
MSL
hPa
Rain
since 9 am
mm
Dir
 
Spd
km/h
Gust
km/h
Spd
kts
Gust
kts
24/11:50pm 15.6 11.0 9.7 68 3.1 NNE 24 28 13 15 1015.3 - -
24/11:40pm 15.7 11.1 9.5 66 3.2 NNE 24 26 13 14 1015.4 - -
24/11:30pm 15.7 11.0 9.3 65 3.3 NNE 24 28 13 15 1015.6 - -
24/11:20pm 15.6 11.3 9.5 67 3.2 NNE 22 24 12 13 1015.8 - -
24/11:10pm 15.7 11.6 10.0 69 3.0 NNE 22 24 12 13 1016.0 - -
24/11:00pm 16.0 11.8 9.9 67 3.2 NNE 22 24 12 13 1016.2 - -
24/10:50pm 16.3 12.2 10.1 66 3.3 NNE 22 26 12 14 1016.2 - -
24/10:40pm 17.0 13.6 10.7 66 3.4 NNE 19 20 10 11 1016.2 - -
24/10:30pm 16.7 13.8 11.0 69 3.1 NNE 17 22 9 12 1016.3 - -
24/10:20pm 16.0 12.6 10.5 70 2.9 NNE 19 22 10 12 1016.3 - -
24/10:10pm 16.1 13.1 10.5 69 3.0 NNE 17 20 9 11 1016.3 - -
24/10:00pm 16.1 12.5 9.9 66 3.2 NNE 19 20 10 11 1016.3 - -
24/09:50pm 15.9 13.2 10.2 69 3.0 NNE 15 20 8 11 1016.4 - -
24/09:40pm 15.8 14.0 9.4 65 3.3 NNE 9 15 5 8 1016.6 - -
24/09:30pm 15.8 12.6 8.5 62 3.7 NNE 15 19 8 10 1016.6 - -
24/09:20pm 15.7 12.1 8.5 62 3.7 NNE 17 19 9 10 1016.6 - -
24/09:10pm 15.7 12.1 8.5 62 3.7 NNE 17 20 9 11 1016.6 - -
24/09:00pm 15.8 11.9 8.6 62 3.7 NNE 19 22 10 12 1016.6 - -
24/08:50pm 15.7 12.2 8.6 62 3.6 NNE 17 19 9 10 1016.6 - -
24/08:40pm 15.7 12.6 8.8 63 3.5 NNE 15 17 8 9 1016.6 - -
24/08:30pm 15.6 12.9 8.8 64 3.5 NNE 13 15 7 8 1016.5 - -
24/08:20pm 15.6 12.9 9.0 65 3.4 NNE 13 15 7 8 1016.5 - -
24/08:10pm 15.6 12.9 8.9 64 3.4 NNE 13 15 7 8 1016.5 - -
24/08:00pm 15.5 12.4 8.9 65 3.4 NNE 15 17 8 9 1016.6 - -
24/07:50pm 15.5 12.5 9.1 65 3.3 NNE 15 17 8 9 1016.7 - -
24/07:40pm 15.6 12.9 9.0 65 3.4 NNE 13 15 7 8 1016.6 - -
24/07:30pm 15.7 13.0 9.1 65 3.4 NNE 13 15 7 8 1016.6 - -
24/07:20pm 15.6 12.9 8.9 64 3.4 NNE 13 15 7 8 1016.6 - -
24/07:10pm 15.6 13.2 8.6 63 3.6 NNE 11 15 6 8 1016.6 - -
24/07:00pm 15.7 13.3 8.8 63 3.5 NNE 11 13 6 7 1016.5 - -
24/06:50pm 15.6 13.6 8.7 63 3.5 NNE 9 11 5 6 1016.5 - -
24/06:40pm 15.4 13.7 8.4 63 3.5 NNE 7 9 4 5 1016.4 - -
24/06:30pm 15.3 13.2 8.2 62 3.6 NNE 9 11 5 6 1016.5 - -
24/06:20pm 15.1 13.0 8.1 63 3.5 NNE 9 11 5 6 1016.5 - -
24/06:10pm 14.8 12.3 8.3 65 3.3 N 11 15 6 8 1016.6 - -
24/06:00pm 14.8 12.3 8.3 65 3.3 N 11 13 6 7 1016.5 - -
24/05:50pm 14.7 12.2 8.2 65 3.3 N 11 13 6 7 1016.5 - -
24/05:40pm 14.8 12.0 8.6 66 3.1 N 13 17 7 9 1016.5 - -
24/05:30pm 14.8 12.0 8.7 67 3.1 - 13 17 7 9 1016.5 - -
24/05:20pm 14.9 12.2 8.8 67 3.1 - 13 17 7 9 1016.5 - -
24/05:10pm 15.3 12.2 9.0 66 3.2 N 15 19 8 10 1016.4 - -
24/05:00pm 15.4 12.4 9.4 67 3.1 N 15 19 8 10 1016.4 - -
24/04:50pm 14.7 12.0 8.8 68 3.0 N 13 17 7 9 1016.4 - -
24/04:40pm 14.7 11.5 8.4 66 3.2 N 15 17 8 9 1016.4 - -
24/04:30pm 14.6 11.3 8.0 64 3.3 - 15 20 8 11 1016.3 - -
24/04:20pm 14.5 11.1 7.5 63 3.5 N 15 19 8 10 1016.3 - -
24/04:10pm 14.6 11.3 7.9 64 3.3 N 15 20 8 11 1016.3 - -
24/04:00pm 14.7 11.4 8.1 64 3.3 N 15 19 8 10 1016.2 - -
24/03:50pm 14.7 11.0 8.0 64 3.3 N 17 19 9 10 1016.2 - -
24/03:40pm 14.9 11.6 8.1 64 3.4 NNE 15 19 8 10 1016.1 - -
24/03:30pm 15.1 12.2 8.2 63 3.5 NNE 13 17 7 9 1016.0 - -
24/03:20pm 15.1 12.3 8.4 64 3.4 NNE 13 17 7 9 1016.0 - -
24/03:10pm 15.1 12.2 8.1 63 3.5 NNE 13 15 7 8 1015.8 - -
24/03:00pm 15.1 12.6 8.0 62 3.6 NNE 11 15 6 8 1015.7 - -
24/02:50pm 15.2 12.6 7.9 61 3.7 NNE 11 13 6 7 1015.6 - -
24/02:40pm 15.3 12.3 7.8 61 3.7 NNE 13 15 7 8 1015.5 - -
24/02:30pm 15.6 12.6 7.5 58 4.0 NNE 13 15 7 8 1015.4 - -
24/02:20pm 15.4 12.0 7.6 59 3.9 NNE 15 17 8 9 1015.4 - -
24/02:10pm 15.3 12.3 7.5 59 3.9 NNE 13 17 7 9 1015.4 - -
24/02:00pm 15.2 12.2 7.8 61 3.7 NE 13 15 7 8 1015.4 - -
24/01:50pm 15.1 12.2 8.0 62 3.6 NNE 13 15 7 8 1015.4 - -
24/01:40pm 15.0 12.0 7.9 62 3.5 NNE 13 15 7 8 1015.3 - -
24/01:30pm 14.9 11.9 7.9 63 3.5 NNE 13 17 7 9 1015.4 - -
24/01:20pm 14.9 12.0 8.1 64 3.4 NNE 13 15 7 8 1015.4 - -
24/01:10pm 14.6 12.1 8.2 65 3.2 NNE 11 13 6 7 1015.4 - -
24/01:00pm 14.6 12.2 8.5 67 3.1 NE 11 13 6 7 1015.4 - -
24/12:40pm 14.8 12.4 8.6 66 3.1 NE 11 13 6 7 1015.6 - -
24/12:30pm 14.6 12.1 8.3 66 3.2 NE 11 13 6 7 1015.8 - -
24/12:20pm 14.6 11.7 8.3 66 3.2 NNE 13 15 7 8 1015.9 - -
24/12:10pm 14.7 12.3 8.6 67 3.1 NNE 11 13 6 7 1016.0 - -
24/12:00pm 14.9 12.1 8.7 66 3.1 NNE 13 15 7 8 1016.2 - -
24/11:50am 14.5 11.7 8.4 67 3.1 NNE 13 15 7 8 1016.5 - -
24/11:40am 14.2 11.2 7.7 65 3.2 N 13 15 7 8 1016.7 - -
24/11:30am 14.3 11.3 7.6 64 3.3 N 13 15 7 8 1016.8 - -
24/11:20am 14.4 11.4 7.6 63 3.4 N 13 15 7 8 1017.0 - -
24/11:10am 14.5 11.5 7.6 63 3.4 N 13 15 7 8 1017.1 - -
24/11:00am 14.9 11.9 7.9 63 3.5 N 13 15 7 8 1017.2 - -
24/10:50am 15.9 13.1 8.6 62 3.7 NNE 13 15 7 8 1017.2 - -
24/10:40am 16.1 13.9 9.5 65 3.4 NNE 11 15 6 8 1017.3 - -
24/10:30am 14.3 11.8 8.2 67 3.1 NNE 11 13 6 7 1017.5 - -
24/10:20am 14.3 11.8 8.3 67 3.0 NNE 11 13 6 7 1017.6 - -
24/10:10am 14.1 11.6 8.0 66 3.0 NNE 11 13 6 7 1017.7 - -
24/10:00am 14.2 12.0 7.9 66 3.1 NNE 9 11 5 6 1017.8 - -
24/09:50am 14.4 12.6 7.9 65 3.2 NNE 7 11 4 6 1017.9 - -
24/09:40am 14.5 12.7 7.8 64 3.3 N 7 11 4 6 1018.2 - -
24/09:30am 14.5 12.7 8.1 65 3.2 N 7 11 4 6 1018.3 - -
24/09:20am 14.5 12.8 8.2 66 3.2 N 7 9 4 5 1018.4 - -
24/09:10am 14.4 12.6 8.0 65 3.2 N 7 11 4 6 1018.5 - -
24/09:00am 14.8 13.1 8.3 65 3.3 N 7 11 4 6 1018.5 - -
24/08:50am 14.8 13.1 8.4 65 3.2 NNW 7 11 4 6 1018.4 - -
24/08:40am 14.7 12.6 8.3 65 3.2 NNW 9 13 5 7 1018.6 - -
24/08:30am 14.7 11.9 8.4 66 3.2 NW 13 15 7 8 1018.7 - -
24/08:20am 14.6 11.8 8.4 66 3.1 NW 13 17 7 9 1018.6 - -
24/08:10am 14.3 11.0 8.0 66 3.1 NW 15 19 8 10 1018.5 - -
24/08:00am 14.0 11.0 7.5 65 3.2 NNW 13 17 7 9 1018.4 - -
24/07:50am 14.1 11.5 7.6 65 3.2 N 11 13 6 7 1018.3 - -
24/07:40am 14.2 11.2 7.9 66 3.1 N 13 17 7 9 1018.2 - -
24/07:30am 14.4 11.3 9.0 70 2.7 NNE 15 17 8 9 1018.0 - -
24/07:20am 14.4 11.6 9.9 74 2.3 NNE 15 19 8 10 1017.9 - -
24/07:10am 14.3 11.2 10.3 77 2.1 NNE 17 19 9 10 1017.9 - -
24/07:00am 14.0 11.3 10.3 78 1.9 NNE 15 17 8 9 1017.9 - -
24/06:50am 13.8 11.1 10.4 80 1.8 NNE 15 19 8 10 1017.9 - -
24/06:40am 13.8 10.8 10.5 80 1.7 NNE 17 20 9 11 1017.9 - -
24/06:30am 13.7 10.6 10.4 80 1.7 NNE 17 20 9 11 1017.8 - -
24/06:20am 13.9 10.8 10.4 79 1.8 NNE 17 20 9 11 1017.8 - -
24/06:10am 13.9 10.4 10.3 79 1.9 NNE 19 22 10 12 1017.7 - -
24/05:50am 13.9 10.1 9.8 76 2.1 NE 20 24 11 13 1017.4 - -
24/05:40am 14.1 9.9 9.9 76 2.2 NE 22 26 12 14 1017.3 - -
24/05:30am 13.7 9.4 9.3 75 2.2 NE 22 24 12 13 1017.3 - -
24/05:20am 13.7 9.8 9.4 75 2.2 NE 20 24 11 13 1017.4 - -
24/05:10am 13.9 10.2 9.6 75 2.2 NE 19 22 10 12 1017.4 - -
24/05:00am 13.9 10.2 9.6 75 2.2 NE 19 20 10 11 1017.5 - -
24/04:50am 13.9 10.6 9.7 76 2.2 NE 17 20 9 11 1017.5 - -
24/04:40am 13.8 10.2 9.7 76 2.1 NE 19 20 10 11 1017.5 - -
24/04:30am 13.8 10.2 9.7 76 2.1 NE 19 22 10 12 1017.4 - -
24/04:20am 13.9 10.3 9.7 76 2.2 NE 19 22 10 12 1017.5 - -
24/04:10am 14.0 10.2 9.8 76 2.2 NE 20 24 11 13 1017.5 - -
24/04:00am 14.0 10.2 9.7 75 2.2 NE 20 22 11 12 1017.6 - -
24/03:50am 14.1 10.3 9.7 75 2.3 NE 20 24 11 13 1017.7 - -
24/03:40am 14.3 10.7 9.7 74 2.4 NE 19 22 10 12 1017.8 - -
24/03:30am 14.3 10.6 9.5 73 2.5 NE 19 22 10 12 1017.9 - -
24/03:20am 14.3 10.4 9.3 72 2.6 NNE 20 22 11 12 1018.0 - -
24/03:10am 14.4 10.6 9.2 71 2.7 NNE 19 22 10 12 1018.0 - -
24/03:00am 14.4 10.0 8.9 69 2.8 NNE 22 24 12 13 1018.0 - -
24/02:50am 14.5 9.7 8.8 68 2.9 NNE 24 26 13 14 1018.0 - -
24/02:40am 14.5 10.0 8.5 67 3.0 NE 22 26 12 14 1018.0 - -
24/02:30am 14.4 9.6 8.7 68 2.9 NE 24 28 13 15 1017.9 - -
24/02:20am 14.4 8.7 8.5 67 3.0 NE 28 30 15 16 1017.9 - -
24/02:10am 14.3 8.6 8.5 68 2.9 NE 28 32 15 17 1017.8 - -
24/02:00am 14.3 8.6 8.4 67 3.0 NE 28 32 15 17 1017.8 - -
24/01:50am 14.2 8.1 8.4 68 2.9 NE 30 33 16 18 1017.8 - -
24/01:40am 14.2 8.1 8.3 67 3.0 NE 30 33 16 18 1017.8 - -
24/01:30am 14.2 8.2 8.5 68 2.9 NE 30 33 16 18 1018.0 - -
24/01:20am 14.2 8.1 8.2 67 3.0 NE 30 33 16 18 1018.0 - -
24/01:10am 14.2 7.7 8.1 66 3.0 NE 32 35 17 19 1018.1 - -
24/01:00am 14.2 7.5 8.1 66 3.0 NE 33 37 18 20 1018.1 - -
24/12:50am 14.2 7.5 8.2 67 3.0 NE 33 37 18 20 1018.2 - -
24/12:40am 14.1 7.4 8.2 67 2.9 NE 33 35 18 19 1018.2 - -
24/12:30am 14.1 7.7 8.4 68 2.9 NE 32 37 17 20 1018.2 - -
24/12:10am 14.1 7.7 8.7 70 2.7 NE 32 37 17 20 1018.4 - -
24/12:00am 14.1 7.5 8.7 70 2.7 NE 33 35 18 19 1018.5 - -
 
Date/Time
EST
Temp
°C
App
Temp
°C
Dew
Point
Rel
Hum
%
Delta-T
°C
Wind Press
QNH
hPa
Press
MSL
hPa
Rain
since 9 am
mm
Dir
 
Spd
km/h
Gust
km/h
Spd
kts
Gust
kts
23/11:50pm 14.1 8.1 8.8 70 2.7 NE 30 35 16 19 1018.6 - -
23/11:40pm 14.1 8.2 9.0 71 2.6 NE 30 35 16 19 1018.8 - -
23/11:30pm 14.1 7.9 9.5 74 2.4 NE 32 35 17 19 1018.9 - -
23/11:20pm 14.2 9.2 9.5 73 2.4 NE 26 32 14 17 1019.1 - -
23/11:10pm 14.2 9.1 9.2 72 2.6 NE 26 30 14 16 1019.2 - -
23/11:00pm 14.2 9.1 9.2 72 2.6 NE 26 30 14 16 1019.4 - -
23/10:50pm 14.1 9.0 9.1 72 2.5 NE 26 30 14 16 1019.5 - -
23/10:40pm 14.2 9.1 9.3 72 2.5 NE 26 30 14 16 1019.7 - -
23/10:30pm 14.2 9.5 9.4 73 2.5 NE 24 28 13 15 1019.9 - -
23/10:20pm 14.1 9.4 9.3 73 2.5 NE 24 28 13 15 1020.0 - -
23/10:10pm 14.5 9.7 9.0 69 2.8 NE 24 28 13 15 1020.1 - -
23/10:00pm 15.9 11.4 10.2 69 3.0 NE 24 28 13 15 1020.3 - -
23/09:50pm 14.2 9.5 9.2 72 2.6 NE 24 28 13 15 1020.4 - -
23/09:40pm 14.1 9.7 9.0 71 2.6 NE 22 26 12 14 1020.6 - -
23/09:30pm 14.2 9.4 9.0 71 2.6 NE 24 26 13 14 1020.6 - -
23/09:20pm 14.1 9.6 8.7 70 2.7 NE 22 28 12 15 1020.7 - -
23/09:10pm 14.4 10.0 9.1 70 2.7 NE 22 26 12 14 1020.8 - -
23/09:00pm 14.4 10.0 8.9 69 2.8 NE 22 26 12 14 1020.9 - -
23/08:50pm 14.0 9.6 8.8 71 2.6 NE 22 26 12 14 1021.0 - -
23/08:40pm 14.1 10.3 9.0 71 2.6 NE 19 24 10 13 1021.0 - -
23/08:30pm 14.1 10.0 8.8 70 2.7 NE 20 24 11 13 1021.0 - -
23/08:20pm 14.2 10.8 9.1 71 2.6 ENE 17 22 9 12 1020.9 - -
23/08:10pm 14.2 11.1 8.8 70 2.7 ENE 15 20 8 11 1021.0 - -
23/08:00pm 14.1 10.6 8.9 71 2.6 ENE 17 22 9 12 1021.0 - -
23/07:50pm 14.1 10.7 9.1 72 2.5 ENE 17 24 9 13 1021.0 - -
23/07:40pm 14.0 11.0 9.1 72 2.5 ENE 15 22 8 12 1021.0 - -
23/07:30pm 14.0 10.6 9.1 72 2.5 ENE 17 22 9 12 1021.0 - -
23/07:20pm 13.9 10.5 9.2 73 2.4 ENE 17 24 9 13 1020.9 - -
23/07:10pm 13.8 10.1 9.3 74 2.3 ENE 19 22 10 12 1020.9 - -
23/07:00pm 13.7 10.0 9.6 76 2.1 ENE 19 22 10 12 1020.9 - -
23/06:50pm 13.6 10.3 9.7 77 2.0 ENE 17 20 9 11 1020.9 - -
23/06:40pm 13.5 10.2 9.7 78 2.0 E 17 20 9 11 1021.0 - -
23/06:30pm 13.4 10.5 9.7 78 1.9 E 15 19 8 10 1021.0 - -
23/06:20pm 13.5 10.6 9.8 78 1.9 ENE 15 19 8 10 1021.0 - -
23/06:10pm 13.4 10.6 10.0 80 1.8 E 15 19 8 10 1021.0 - -
23/06:00pm 13.3 10.5 10.1 81 1.7 E 15 19 8 10 1020.9 - -
23/05:50pm 13.1 10.4 10.2 82 1.5 E 15 19 8 10 1020.9 - -
23/05:40pm 13.0 10.7 10.3 84 1.4 E 13 19 7 10 1020.9 - -
23/05:30pm 12.8 10.5 10.3 85 1.3 E 13 17 7 9 1020.8 - -
23/05:20pm 12.7 10.4 10.3 85 1.2 E 13 17 7 9 1020.8 - -
23/05:10pm 12.6 10.6 10.3 86 1.2 E 11 15 6 8 1020.8 - -
23/04:50pm 12.3 11.1 10.2 87 1.1 E 7 11 4 6 1020.8 - -
23/04:40pm 12.3 11.3 10.2 87 1.1 E 6 9 3 5 1020.8 - -
23/04:30pm 12.2 11.5 10.0 86 1.1 E 4 7 2 4 1020.8 - -
23/04:20pm 12.2 11.8 9.9 86 1.2 E 2 4 1 2 1020.8 - -
23/04:10pm 12.1 12.1 9.8 86 1.2 E 0 2 0 1 1020.8 - -
23/04:00pm 12.0 11.9 9.6 85 1.2 E 0 0 0 0 1020.8 - -
23/03:50pm 12.0 11.9 9.4 84 1.3 SE 0 0 0 0 1020.8 - -
23/03:40pm 12.2 12.1 9.4 83 1.4 E 0 0 0 0 1020.8 - -
23/03:30pm 12.3 12.2 9.5 83 1.4 ENE 0 0 0 0 1020.8 - -
23/03:20pm 12.3 12.2 9.3 82 1.5 NE 0 0 0 0 1020.8 - -
23/03:10pm 12.4 12.2 9.2 81 1.6 NE 0 0 0 0 1020.8 - -
23/03:00pm 12.8 12.7 9.4 80 1.7 NE 0 0 0 0 1020.8 - -
23/02:50pm 12.9 12.8 9.5 80 1.7 ESE 0 2 0 1 1020.8 - -
23/02:40pm 13.2 13.2 9.7 79 1.8 NNE 0 0 0 0 1020.8 - -
23/02:30pm 13.1 13.1 9.7 80 1.7 NE 0 0 0 0 1020.9 - -
23/02:20pm 13.0 12.9 9.6 80 1.7 NE 0 0 0 0 1020.9 - -
23/02:10pm 12.9 12.8 9.6 80 1.7 NE 0 0 0 0 1020.9 - -
23/02:00pm 12.8 12.7 9.5 80 1.7 NE 0 0 0 0 1020.9 - -
23/01:50pm 12.8 12.7 9.6 81 1.6 SW 0 0 0 0 1020.9 - -
23/01:40pm 12.6 12.5 9.4 81 1.6 W 0 0 0 0 1021.0 - -
23/01:30pm 12.6 12.5 9.3 80 1.7 WSW 0 2 0 1 1021.0 - -
23/01:20pm 12.5 12.0 9.3 81 1.6 W 2 4 1 2 1021.1 - -
23/01:10pm 12.5 11.6 9.2 80 1.7 W 4 6 2 3 1021.3 - -
23/01:00pm 12.5 12.0 9.2 80 1.7 W 2 6 1 3 1021.3 - -
23/12:50pm 12.5 11.6 9.2 80 1.7 W 4 4 2 2 1021.3 - -
23/12:40pm 12.6 11.7 9.2 80 1.7 WNW 4 6 2 3 1021.4 - -
23/12:30pm 12.7 11.8 9.2 79 1.8 WNW 4 7 2 4 1021.6 - -
23/12:20pm 12.8 11.5 9.1 78 1.9 WNW 6 9 3 5 1021.7 - -
23/12:10pm 13.1 11.6 9.2 77 2.0 WNW 7 9 4 5 1021.8 - -
23/12:00pm 13.2 11.9 9.3 77 2.0 WNW 6 7 3 4 1022.0 - -
23/11:50am 13.2 11.9 9.2 77 2.0 WNW 6 9 3 5 1022.1 - -
23/11:40am 13.4 12.1 9.3 76 2.1 WNW 6 7 3 4 1022.2 - -
23/11:30am 13.5 12.3 9.4 76 2.1 WNW 6 9 3 5 1022.4 - -
23/11:20am 13.5 12.1 9.4 76 2.1 WNW 7 9 4 5 1022.6 - -
23/11:10am 13.7 12.5 9.4 75 2.2 WNW 6 9 3 5 1022.7 - -
23/11:00am 13.9 12.5 9.6 75 2.2 WNW 7 9 4 5 1022.8 - -
23/10:50am 13.7 12.3 9.5 76 2.1 WNW 7 11 4 6 1023.1 - -
23/10:40am 13.8 12.4 9.5 75 2.2 WNW 7 11 4 6 1023.3 - -
23/10:30am 13.9 12.1 9.6 75 2.2 WNW 9 11 5 6 1023.4 - -
23/10:10am 14.1 12.7 9.5 74 2.4 WNW 7 11 4 6 1023.8 - -
23/10:00am 14.3 13.0 9.8 74 2.3 WNW 7 11 4 6 1023.9 - -
23/09:50am 14.2 13.0 9.7 74 2.3 WNW 6 11 3 6 1024.0 - -
23/09:40am 14.3 13.1 9.7 74 2.4 WNW 6 9 3 5 1024.1 - -
23/09:30am 14.3 13.0 9.8 74 2.3 WNW 7 11 4 6 1024.2 - -
23/09:20am 14.4 12.3 9.6 73 2.5 WNW 11 15 6 8 1024.3 - -
23/09:10am 14.6 12.1 9.6 72 2.6 WNW 13 17 7 9 1024.4 - -
23/09:00am 15.0 12.8 9.2 68 3.0 WNW 11 17 6 9 1024.4 - -
23/08:50am 15.2 13.7 9.1 67 3.1 WNW 7 11 4 6 1024.4 - -
23/08:40am 15.1 13.8 9.1 67 3.1 NW 6 9 3 5 1024.4 - -
23/08:30am 14.9 13.5 8.9 67 3.1 NW 6 9 3 5 1024.4 - -
23/08:20am 14.7 14.3 8.4 66 3.2 NW 0 4 0 2 1024.4 - -
23/08:10am 14.7 14.3 8.4 66 3.2 N 0 2 0 1 1024.5 - -
23/08:00am 14.5 14.1 8.3 66 3.1 N 0 2 0 1 1024.4 - -
23/07:50am 14.1 13.6 7.9 66 3.1 NE 0 0 0 0 1024.3 - -
23/07:40am 13.8 13.3 7.8 67 3.0 NE 0 0 0 0 1024.2 - -
23/07:30am 13.7 13.2 7.9 68 2.9 NE 0 0 0 0 1024.1 - -
23/07:20am 13.0 12.4 7.6 70 2.6 NE 0 0 0 0 1024.1 - -
23/07:00am 13.0 12.5 7.9 71 2.5 SE 0 4 0 2 1024.0 - -
23/06:50am 12.8 12.3 7.9 72 2.4 SSE 0 2 0 1 1024.0 - -
23/06:40am 12.7 12.2 7.9 72 2.4 S 0 2 0 1 1024.0 - -
23/06:30am 12.6 12.1 8.0 73 2.3 SSE 0 2 0 1 1024.0 - -
23/06:20am 12.6 12.2 8.1 74 2.2 SSE 0 2 0 1 1023.9 - -
23/06:10am 12.6 12.2 8.1 74 2.2 SW 0 0 0 0 1023.9 - -
23/06:00am 12.5 12.1 8.1 74 2.2 SW 0 0 0 0 1023.8 - -
23/05:50am 12.5 12.1 8.2 75 2.1 S 0 2 0 1 1023.7 - -
23/05:40am 12.5 11.7 8.3 75 2.1 S 2 6 1 3 1023.5 - -

Other Formats:

Comma delimited format used in spreadsheet applications
http://www.bom.gov.au/fwo/IDV60801/IDV60801.55039.axf

JavaScript Object Notation format (JSON) in row-major order
http://www.bom.gov.au/fwo/IDV60801/IDV60801.55039.json